Time;durP1;ratioP1;P1;durP2;ratioP2;P2;SDS_P1;SDS_P2;PMS_P1;PMS_P2;Temp;Humidity;BMP_temperature;BMP_pressure;BME280_temperature;BME280_humidity;BME280_pressure;Samples;Min_cycle;Max_cycle;Signal;HPM_P1;HPM_P2
2022/11/29 00:00:33;;;;;;;23.23;10.85;;;;;;;0.86;100.00;101321.03;5007234;28;20486;-77
2022/11/29 00:02:58;;;;;;;18.88;10.30;;;;;;;0.45;100.00;101239.66;5000595;28;20493;-77
2022/11/29 00:05:24;;;;;;;27.23;12.60;;;;;;;1.68;100.00;101456.38;5007308;28;20060;-76
2022/11/29 00:07:49;;;;;;;25.15;11.43;;;;;;;1.72;100.00;101470.38;5007839;28;20030;-74
2022/11/29 00:10:15;;;;;;;19.83;11.43;;;;;;;0.39;100.00;101240.19;5006319;28;20553;-78
2022/11/29 00:12:40;;;;;;;22.15;11.43;;;;;;;0.83;100.00;101317.47;5004999;28;20050;-78
2022/11/29 00:15:07;;;;;;;20.02;12.25;;;;;;;0.87;100.00;101302.13;5003909;28;20628;-76
2022/11/29 00:17:33;;;;;;;18.08;11.25;;;;;;;1.77;100.00;101456.88;5004965;28;20056;-79
2022/11/29 00:19:58;;;;;;;20.73;10.88;;;;;;;1.33;100.00;101364.00;5008998;28;20409;-77
2022/11/29 00:22:24;;;;;;;15.13;9.43;;;;;;;0.22;100.00;101197.97;5007778;28;20209;-77
2022/11/29 00:24:54;;;;;;;18.58;10.95;;;;;;;0.61;100.00;101245.72;5005989;28;20481;-76
2022/11/29 00:27:20;;;;;;;19.45;10.85;;;;;;;0.63;100.00;101245.78;5003490;28;20066;-77
2022/11/29 00:29:45;;;;;;;21.23;11.23;;;;;;;1.03;100.00;101307.31;4997942;28;20425;-77
2022/11/29 00:32:11;;;;;;;26.65;10.45;;;;;;;1.77;100.00;101437.88;5002976;28;20733;-78
2022/11/29 00:34:36;;;;;;;20.85;11.95;;;;;;;1.59;100.00;101425.78;5006913;28;20050;-82
2022/11/29 00:37:02;;;;;;;23.73;12.10;;;;;;;1.50;100.00;101393.34;5003415;28;20049;-83
2022/11/29 00:39:28;;;;;;;18.23;10.23;;;;;;;1.51;100.00;101390.84;5003272;28;20573;-82
2022/11/29 00:41:54;;;;;;;24.15;12.35;;;;;;;0.88;100.00;101270.34;4998978;28;20054;-82
2022/11/29 00:44:19;;;;;;;20.95;10.85;;;;;;;1.72;100.00;101421.22;5005133;28;20041;-78
2022/11/29 00:46:45;;;;;;;18.52;11.80;;;;;;;1.77;100.00;101425.81;5005423;28;20042;-75
2022/11/29 00:49:10;;;;;;;22.75;11.30;;;;;;;1.67;100.00;101416.69;5007298;28;20362;-76
2022/11/29 00:51:36;;;;;;;21.35;10.57;;;;;;;1.90;100.00;101442.88;5007010;28;20108;-76
2022/11/29 00:54:01;;;;;;;24.17;11.32;;;;;;;1.15;100.00;101284.72;5003521;28;20097;-77
2022/11/29 00:56:27;;;;;;;23.00;12.30;;;;;;;1.67;100.00;101380.47;5004425;28;20486;-76
2022/11/29 00:58:52;;;;;;;22.58;11.23;;;;;;;1.87;100.00;101372.84;5005801;28;20086;-79
2022/11/29 01:01:18;;;;;;;19.17;12.07;;;;;;;1.80;100.00;101388.88;5001775;28;20049;-79
2022/11/29 01:03:43;;;;;;;19.30;11.27;;;;;;;1.38;100.00;101314.34;5000905;28;20050;-77
2022/11/29 01:06:12;;;;;;;21.35;11.18;;;;;;;2.05;100.00;101440.19;5002209;28;20137;-79
2022/11/29 01:08:38;;;;;;;22.73;12.15;;;;;;;1.49;100.00;101343.31;4999775;28;20050;-79
2022/11/29 01:11:12;;;;;;;16.65;10.48;;;;;;;1.10;100.00;101257.75;5000834;28;20038;-77
2022/11/29 01:13:38;;;;;;;21.42;13.40;;;;;;;2.23;100.00;101411.75;5002167;28;20050;-76
2022/11/29 01:16:04;;;;;;;22.95;10.32;;;;;;;1.14;100.00;101285.50;5000894;28;20056;-76
2022/11/29 01:18:30;;;;;;;19.30;9.77;;;;;;;1.79;100.00;101425.91;4998352;28;20069;-76
2022/11/29 01:21:07;;;;;;;28.50;10.23;;;;;;;1.72;100.00;101385.91;5000470;28;20583;-79
2022/11/29 01:23:34;;;;;;;20.35;11.52;;;;;;;2.00;100.00;101414.06;4999920;28;20098;-76
2022/11/29 01:26:06;;;;;;;23.25;13.18;;;;;;;1.23;100.00;101293.72;5000193;28;20527;-78
2022/11/29 01:28:32;;;;;;;24.40;13.50;;;;;;;2.11;100.00;101424.97;5004328;28;20077;-76
2022/11/29 01:30:58;;;;;;;22.08;13.55;;;;;;;1.52;100.00;101273.63;5001212;28;20084;-76
2022/11/29 01:33:23;;;;;;;16.42;10.20;;;;;;;1.12;100.00;101180.25;5006619;28;20062;-79
2022/11/29 01:35:51;;;;;;;23.45;11.68;;;;;;;2.11;100.00;101409.44;5006416;28;20774;-79
2022/11/29 01:38:17;;;;;;;18.63;12.23;;;;;;;1.55;100.00;101297.09;5003750;28;20133;-78
2022/11/29 01:40:44;;;;;;;18.77;10.98;;;;;;;1.44;100.00;101290.47;5005766;28;20461;-77
2022/11/29 01:43:14;;;;;;;20.75;11.63;;;;;;;1.72;100.00;101349.69;5005723;28;20065;-79
2022/11/29 01:45:40;;;;;;;18.58;12.10;;;;;;;1.93;100.00;101390.41;5000042;28;20131;-77
2022/11/29 01:48:06;;;;;;;19.10;11.27;;;;;;;2.24;100.00;101400.56;4997468;28;20502;-77
2022/11/29 01:50:31;;;;;;;18.00;9.77;;;;;;;2.22;100.00;101356.47;5005834;28;20045;-77
2022/11/29 01:52:58;;;;;;;23.27;13.40;;;;;;;2.08;100.00;101411.84;5001253;28;21698;-79
2022/11/29 01:55:24;;;;;;;19.50;12.07;;;;;;;1.55;100.00;101298.78;5004116;28;20168;-75
2022/11/29 01:57:50;;;;;;;21.75;11.07;;;;;;;1.87;100.00;101417.75;4997610;28;20046;-78
2022/11/29 02:00:17;;;;;;;20.10;9.88;;;;;;;1.86;100.00;101408.19;4999003;28;20062;-80
2022/11/29 02:03:10;;;;;;;21.95;13.00;;;;;;;1.95;100.00;101409.47;5001392;28;20046;-78
2022/11/29 02:05:39;;;;;;;22.45;12.63;;;;;;;1.05;100.00;101278.19;4989000;28;20054;-77
2022/11/29 02:08:07;;;;;;;21.80;12.25;;;;;;;1.71;100.00;101316.88;5002745;28;20041;-77
2022/11/29 02:10:57;;;;;;;23.77;12.45;;;;;;;1.95;100.00;101412.94;5003620;28;20053;-77
2022/11/29 02:13:41;;;;;;;25.30;11.20;;;;;;;1.18;100.00;101284.84;5002791;28;20057;-77
2022/11/29 02:16:40;;;;;;;21.65;11.77;;;;;;;2.09;100.00;101405.88;5002804;28;20052;-78
2022/11/29 02:19:12;;;;;;;41.50;12.73;;;;;;;2.18;100.00;101419.28;5000205;28;20061;-77
2022/11/29 02:21:37;;;;;;;16.23;10.60;;;;;;;1.84;100.00;101422.75;5002316;28;20053;-78
2022/11/29 02:24:25;;;;;;;19.73;10.90;;;;;;;1.83;100.00;101417.50;5001715;28;20119;-77
2022/11/29 02:26:53;;;;;;;21.50;10.13;;;;;;;1.98;100.00;101426.03;5001619;28;20653;-77
2022/11/29 02:30:06;;;;;;;27.13;12.00;;;;;;;1.90;100.00;101393.72;5003217;28;20030;-77
2022/11/29 02:32:58;;;;;;;27.13;12.82;;;;;;;2.03;100.00;101396.09;4983214;28;20133;-77
2022/11/29 02:35:30;;;;;;;24.75;10.23;;;;;;;1.27;100.00;101306.03;4990465;28;20123;-76
2022/11/29 02:38:21;;;;;;;22.55;12.02;;;;;;;1.30;100.00;101307.00;5009995;28;20046;-77
2022/11/29 02:41:44;;;;;;;20.98;10.73;;;;;;;1.91;100.00;101421.34;5008077;28;20050;-77
2022/11/29 02:44:22;;;;;;;27.85;13.18;;;;;;;2.11;100.00;101410.31;5006031;28;20079;-78
2022/11/29 02:47:06;;;;;;;18.88;11.57;;;;;;;1.58;100.00;101348.97;4990033;28;20038;-77
2022/11/29 02:49:38;;;;;;;21.13;11.35;;;;;;;1.93;100.00;101424.91;5007431;28;20050;-78
2022/11/29 02:52:23;;;;;;;22.35;13.70;;;;;;;1.48;100.00;101362.25;5007685;28;20111;-77
2022/11/29 02:54:57;;;;;;;18.58;12.30;;;;;;;1.93;100.00;101430.09;5000376;28;20152;-77
2022/11/29 02:57:36;;;;;;;25.48;13.52;;;;;;;1.97;100.00;101432.03;5007351;28;20104;-76
2022/11/29 03:00:20;;;;;;;24.95;12.60;;;;;;;2.25;100.00;101430.84;5006292;28;20562;-77
2022/11/29 03:03:11;;;;;;;24.80;14.05;;;;;;;1.54;100.00;101348.72;5006948;28;20092;-78
2022/11/29 03:06:15;;;;;;;23.08;10.98;;;;;;;1.87;100.00;101407.41;5003588;28;20443;-76
2022/11/29 03:09:01;;;;;;;22.38;12.73;;;;;;;1.14;100.00;101261.34;5008058;28;20057;-77
2022/11/29 03:11:57;;;;;;;23.20;12.68;;;;;;;1.92;100.00;101423.16;5007454;28;20053;-77
2022/11/29 03:14:24;;;;;;;16.63;10.93;;;;;;;1.89;100.00;101434.22;5008475;28;20030;-77
2022/11/29 03:17:11;;;;;;;24.20;11.98;;;;;;;2.07;100.00;101439.44;5005817;28;20030;-76
2022/11/29 03:19:54;;;;;;;17.48;10.02;;;;;;;2.05;100.00;101430.72;5006375;28;20116;-76
2022/11/29 03:22:40;;;;;;;22.05;11.55;;;;;;;2.10;100.00;101431.81;5008079;28;20493;-77
2022/11/29 03:25:21;;;;;;;31.40;14.35;;;;;;;1.96;100.00;101414.72;5008446;28;20049;-77
2022/11/29 03:28:01;;;;;;;30.00;13.45;;;;;;;1.72;100.00;101403.13;5005737;28;20084;-77
2022/11/29 03:30:31;;;;;;;22.92;13.15;;;;;;;1.56;100.00;101350.59;5011385;28;20537;-76
2022/11/29 03:33:02;;;;;;;23.20;13.35;;;;;;;1.96;100.00;101431.94;5007488;28;20054;-76
2022/11/29 03:36:07;;;;;;;27.58;12.77;;;;;;;1.75;100.00;101391.22;5005983;28;20392;-75
2022/11/29 03:38:40;;;;;;;21.92;11.50;;;;;;;1.66;100.00;101372.63;4990714;28;24440;-79
2022/11/29 03:41:29;;;;;;;21.65;11.07;;;;;;;0.99;100.00;101258.88;5006249;28;20139;-80
2022/11/29 03:44:19;;;;;;;21.10;10.05;;;;;;;1.85;100.00;101423.63;5008588;28;20049;-75
2022/11/29 03:47:06;;;;;;;28.02;14.43;;;;;;;1.96;100.00;101425.06;5004458;28;20408;-77
2022/11/29 03:49:40;;;;;;;24.05;12.90;;;;;;;1.20;100.00;101305.63;5007106;28;20141;-78
2022/11/29 03:52:20;;;;;;;19.08;10.00;;;;;;;1.82;100.00;101385.53;5007998;28;20149;-78
2022/11/29 03:55:06;;;;;;;18.08;10.88;;;;;;;1.83;100.00;101413.22;5007060;28;20115;-79
2022/11/29 03:57:37;;;;;;;17.77;10.38;;;;;;;1.95;100.00;101427.59;5005853;28;20054;-79
2022/11/29 04:00:11;;;;;;;20.92;9.82;;;;;;;1.65;100.00;101395.03;5004076;28;20180;-78
2022/11/29 04:03:15;;;;;;;18.15;11.13;;;;;;;1.88;100.00;101422.09;4997695;28;20422;-79
2022/11/29 04:05:58;;;;;;;29.20;12.85;;;;;;;1.85;100.00;101419.34;5002902;28;20050;-82
2022/11/29 04:08:27;;;;;;;26.50;11.55;;;;;;;1.82;100.00;101405.38;5000680;28;20060;-76
2022/11/29 04:11:53;;;;;;;18.20;11.52;;;;;;;1.80;100.00;101399.22;5007948;28;20105;-77
2022/11/29 04:14:59;;;;;;;23.90;10.23;;;;;;;1.87;100.00;101411.66;4982648;28;20065;-76
2022/11/29 04:17:43;;;;;;;19.67;12.63;;;;;;;1.82;100.00;101433.81;4990930;28;20504;-75
2022/11/29 04:20:43;;;;;;;15.82;10.80;;;;;;;1.80;100.00;101412.16;5006764;28;20045;-75
2022/11/29 04:23:24;;;;;;;30.00;14.95;;;;;;;1.92;100.00;101428.34;5003855;28;20062;-75
2022/11/29 04:26:01;;;;;;;20.92;10.98;;;;;;;1.92;100.00;101432.59;5005342;28;20141;-76
2022/11/29 04:28:39;;;;;;;28.40;13.50;;;;;;;1.93;100.00;101426.63;5004959;28;20049;-76
2022/11/29 04:31:25;;;;;;;24.35;11.93;;;;;;;1.87;100.00;101429.78;4999184;28;20048;-77
2022/11/29 04:33:57;;;;;;;20.15;9.30;;;;;;;1.89;100.00;101441.09;4999352;28;20046;-77
2022/11/29 04:36:41;;;;;;;23.15;10.95;;;;;;;1.95;100.00;101435.38;5003525;28;20053;-76
2022/11/29 04:39:16;;;;;;;19.33;10.73;;;;;;;1.79;100.00;101387.09;5000973;28;20054;-75
2022/11/29 04:42:13;;;;;;;23.50;11.65;;;;;;;1.95;100.00;101433.66;5003424;28;20629;-76
2022/11/29 04:44:48;;;;;;;21.52;11.27;;;;;;;1.41;100.00;101345.53;5000670;28;20191;-76
2022/11/29 04:47:45;;;;;;;19.45;11.82;;;;;;;1.42;100.00;101347.28;4998435;28;20109;-76
2022/11/29 04:50:17;;;;;;;22.85;11.98;;;;;;;1.71;100.00;101401.31;5000089;28;20379;-77
2022/11/29 04:53:18;;;;;;;43.45;14.00;;;;;;;1.98;100.00;101427.75;4999791;28;20042;-82
2022/11/29 04:56:05;;;;;;;20.38;11.85;;;;;;;1.93;100.00;101431.81;4987018;28;20116;-80
2022/11/29 04:58:44;;;;;;;23.83;12.45;;;;;;;1.03;100.00;101287.53;5022306;28;20045;-77
2022/11/29 05:01:19;;;;;;;25.30;11.15;;;;;;;1.92;100.00;101437.78;4997040;28;20140;-80
2022/11/29 05:04:06;;;;;;;20.77;11.98;;;;;;;1.74;100.00;101404.97;5016697;28;20065;-77
2022/11/29 05:06:42;;;;;;;20.25;12.45;;;;;;;1.94;100.00;101444.81;4999559;28;20506;-76
2022/11/29 05:09:29;;;;;;;21.15;10.43;;;;;;;1.98;100.00;101433.81;4997078;28;20054;-76
2022/11/29 05:12:17;;;;;;;25.35;13.38;;;;;;;1.90;100.00;101438.59;5004389;28;20065;-78
2022/11/29 05:14:49;;;;;;;26.63;13.77;;;;;;;1.98;100.00;101440.69;4999025;28;20058;-77
2022/11/29 05:17:32;;;;;;;35.67;18.40;;;;;;;1.90;100.00;101433.41;5000089;28;20118;-76
2022/11/29 05:20:28;;;;;;;29.58;14.93;;;;;;;1.84;100.00;101430.50;5000648;28;20042;-76
2022/11/29 05:23:21;;;;;;;22.80;11.52;;;;;;;1.81;100.00;101451.06;5005013;28;20057;-78
2022/11/29 05:26:13;;;;;;;23.85;13.95;;;;;;;1.77;100.00;101433.59;5014965;28;20076;-77
2022/11/29 05:28:39;;;;;;;24.40;12.38;;;;;;;1.82;100.00;101439.88;4982341;28;21615;-77
2022/11/29 05:31:26;;;;;;;30.25;14.95;;;;;;;1.85;100.00;101439.16;5002334;28;20052;-77
2022/11/29 05:34:13;;;;;;;20.02;11.90;;;;;;;1.71;100.00;101446.22;5006023;28;20513;-78
2022/11/29 05:36:50;;;;;;;23.50;13.02;;;;;;;1.36;100.00;101356.41;5005135;28;20058;-77
2022/11/29 05:39:34;;;;;;;20.20;12.13;;;;;;;1.80;100.00;101444.13;5001628;28;20042;-79
2022/11/29 05:42:38;;;;;;;27.02;15.65;;;;;;;1.47;100.00;101415.66;5002266;28;20140;-77
2022/11/29 05:45:26;;;;;;;29.15;12.95;;;;;;;1.72;100.00;101448.00;4994147;28;20042;-77
2022/11/29 05:48:16;;;;;;;28.73;14.50;;;;;;;0.90;100.00;101308.34;5002384;28;20046;-76
2022/11/29 05:51:15;;;;;;;23.20;14.02;;;;;;;1.67;100.00;101447.75;5004666;28;20061;-78
2022/11/29 05:53:51;;;;;;;27.63;13.32;;;;;;;1.71;100.00;101447.91;5000948;28;20108;-76
2022/11/29 05:56:32;;;;;;;29.13;14.52;;;;;;;0.97;100.00;101317.34;4987552;28;20046;-76
2022/11/29 05:59:08;;;;;;;26.48;14.50;;;;;;;1.50;100.00;101414.94;4997641;28;20038;-76
2022/11/29 06:01:54;;;;;;;25.55;12.40;;;;;;;1.02;100.00;101337.44;5000978;28;20506;-75
2022/11/29 06:04:38;;;;;;;28.20;16.52;;;;;;;1.79;100.00;101451.78;5011318;28;20058;-79
2022/11/29 06:07:22;;;;;;;27.92;14.50;;;;;;;1.74;100.00;101456.72;5022748;28;20077;-80
2022/11/29 06:09:56;;;;;;;21.48;12.18;;;;;;;0.93;100.00;101330.88;5004858;28;20054;-77
2022/11/29 06:12:25;;;;;;;28.80;14.70;;;;;;;0.69;100.00;101278.81;5006300;28;20084;-76
2022/11/29 06:15:19;;;;;;;27.92;16.38;;;;;;;1.76;100.00;101446.47;5005044;28;20056;-77
2022/11/29 06:17:54;;;;;;;30.58;16.65;;;;;;;1.88;100.00;101483.31;5005680;28;20058;-77
2022/11/29 06:20:40;;;;;;;26.30;14.52;;;;;;;1.84;100.00;101489.13;5003505;28;20033;-77
2022/11/29 06:23:35;;;;;;;32.50;15.68;;;;;;;1.83;100.00;101489.97;4994966;28;20054;-78
2022/11/29 06:26:38;;;;;;;28.10;14.77;;;;;;;1.78;100.00;101483.63;5001732;28;20128;-77
2022/11/29 06:29:22;;;;;;;25.40;14.57;;;;;;;1.76;100.00;101486.16;5002669;28;20488;-76
2022/11/29 06:32:09;;;;;;;24.30;12.85;;;;;;;1.75;100.00;101471.41;4991699;28;20061;-77
2022/11/29 06:35:31;;;;;;;27.80;13.68;;;;;;;1.82;100.00;101489.03;4993717;28;20056;-77
2022/11/29 06:38:01;;;;;;;24.73;15.57;;;;;;;1.20;100.00;101403.84;4990177;28;20054;-76
2022/11/29 06:40:35;;;;;;;35.92;17.02;;;;;;;1.88;100.00;101484.19;4997247;28;20073;-77
2022/11/29 06:43:13;;;;;;;35.22;15.57;;;;;;;1.21;100.00;101413.38;4991687;28;20050;-77
2022/11/29 06:45:44;;;;;;;29.23;18.05;;;;;;;1.87;100.00;101487.63;5004257;28;20060;-75
2022/11/29 06:48:17;;;;;;;28.63;15.40;;;;;;;0.52;100.00;101265.88;5008403;28;20640;-77
2022/11/29 06:51:02;;;;;;;30.30;15.75;;;;;;;1.90;100.00;101505.00;4997489;28;20054;-77
2022/11/29 06:53:51;;;;;;;29.75;16.73;;;;;;;1.81;100.00;101505.41;5002129;28;20505;-77
2022/11/29 06:56:38;;;;;;;25.15;14.88;;;;;;;1.88;100.00;101499.72;4997181;28;20041;-77
2022/11/29 06:59:12;;;;;;;37.95;16.67;;;;;;;1.91;100.00;101501.59;4996441;28;20072;-76
2022/11/29 07:01:52;;;;;;;35.22;16.55;;;;;;;2.03;100.00;101480.63;5019485;28;20888;-75
2022/11/29 07:04:34;;;;;;;35.70;15.13;;;;;;;2.19;100.00;101487.50;5004583;28;20057;-74
2022/11/29 07:07:00;;;;;;;29.83;14.77;;;;;;;1.71;100.00;101472.09;5005000;28;20137;-75
2022/11/29 07:09:30;;;;;;;38.72;20.95;;;;;;;1.69;100.00;101429.72;4999419;28;20788;-74
2022/11/29 07:11:56;;;;;;;33.20;18.65;;;;;;;2.16;100.00;101496.00;5002683;28;20064;-72
2022/11/29 07:14:22;;;;;;;35.78;18.98;;;;;;;2.78;100.00;101455.88;5006651;28;20030;-71
2022/11/29 07:16:47;;;;;;;36.85;18.90;;;;;;;2.45;100.00;101504.34;5009792;28;20041;-73
2022/11/29 07:19:44;;;;;;;44.13;19.67;;;;;;;3.07;100.00;101501.38;4998000;28;20274;-73
2022/11/29 07:22:13;;;;;;;41.65;25.17;;;;;;;4.55;100.00;101497.59;5002906;28;20157;-71
2022/11/29 07:24:41;;;;;;;47.97;28.25;;;;;;;5.61;100.00;101487.06;5002331;28;20131;-74
2022/11/29 07:27:32;;;;;;;35.08;21.13;;;;;;;3.19;100.00;101488.09;5005615;28;20542;-73
2022/11/29 07:30:14;;;;;;;34.35;20.42;;;;;;;2.73;100.00;101498.84;5001823;28;20089;-74
2022/11/29 07:33:14;;;;;;;57.90;35.42;;;;;;;3.84;100.00;101491.97;5006813;28;20136;-72
2022/11/29 07:36:04;;;;;;;39.45;20.55;;;;;;;3.07;100.00;101487.53;5001508;28;20046;-70
2022/11/29 07:39:06;;;;;;;40.17;23.17;;;;;;;2.75;100.00;101435.91;5008455;28;20061;-72
2022/11/29 07:41:51;;;;;;;35.67;19.30;;;;;;;2.81;100.00;101487.16;5005025;28;20045;-70
2022/11/29 07:44:39;;;;;;;33.38;17.55;;;;;;;2.31;100.00;101491.59;5004290;28;20458;-70
2022/11/29 07:47:04;;;;;;;29.35;15.02;;;;;;;1.64;100.00;101345.81;5007410;28;20049;-79
2022/11/29 07:49:30;;;;;;;31.27;18.83;;;;;;;2.52;100.00;101468.47;5014180;28;20033;-76
2022/11/29 07:51:55;;;;;;;23.73;15.00;;;;;;;1.68;100.00;101346.03;5009674;28;20065;-77
2022/11/29 07:54:21;;;;;;;28.35;15.88;;;;;;;2.38;100.00;101487.59;5009168;28;20042;-78
2022/11/29 07:56:47;;;;;;;36.20;17.70;;;;;;;1.88;100.00;101377.22;5007873;28;20470;-77
2022/11/29 07:59:13;;;;;;;28.40;17.90;;;;;;;2.51;100.00;101474.47;5008772;28;20405;-77
2022/11/29 08:01:39;;;;;;;34.63;20.20;;;;;;;2.27;100.00;101452.50;5013768;28;20053;-78
2022/11/29 08:04:05;;;;;;;32.92;16.85;;;;;;;1.68;100.00;101332.22;5007676;28;20053;-79
2022/11/29 08:06:31;;;;;;;48.58;17.58;;;;;;;2.63;100.00;101483.66;5008437;28;20046;-76
2022/11/29 08:08:58;;;;;;;29.10;17.05;;;;;;;2.27;100.00;101429.19;5005349;28;20061;-77
2022/11/29 08:11:24;;;;;;;30.27;17.08;;;;;;;2.51;100.00;101456.34;5009550;28;20489;-77
2022/11/29 08:13:49;;;;;;;31.38;16.15;;;;;;;2.31;100.00;101411.31;5009393;28;20030;-79
2022/11/29 08:16:16;;;;;;;31.90;15.57;;;;;;;2.44;100.00;101456.84;5008894;28;20061;-77
2022/11/29 08:18:42;;;;;;;33.35;17.05;;;;;;;2.35;100.00;101425.31;5007208;28;20061;-78
2022/11/29 08:21:07;;;;;;;34.70;19.45;;;;;;;1.79;100.00;101318.13;4990317;28;20422;-78
2022/11/29 08:23:33;;;;;;;27.98;19.60;;;;;;;2.88;100.00;101475.38;5008727;28;20508;-77
2022/11/29 08:25:59;;;;;;;35.85;18.98;;;;;;;2.47;100.00;101431.09;5007729;28;20038;-77
2022/11/29 08:28:25;;;;;;;29.10;14.18;;;;;;;2.72;100.00;101473.75;5001354;28;20096;-78
2022/11/29 08:31:03;;;;;;;30.85;16.92;;;;;;;2.85;100.00;101483.00;4996760;28;20050;-77
2022/11/29 08:33:29;;;;;;;33.45;17.00;;;;;;;2.65;100.00;101446.66;4999822;28;20049;-77
2022/11/29 08:35:54;;;;;;;25.80;15.18;;;;;;;1.47;100.00;101246.66;5001742;28;20164;-77
2022/11/29 08:38:20;;;;;;;22.90;14.63;;;;;;;2.80;100.00;101458.56;5003664;28;20533;-77
2022/11/29 08:40:45;;;;;;;24.88;17.25;;;;;;;2.00;100.00;101320.88;5002596;28;20042;-83
2022/11/29 08:43:11;;;;;;;29.38;15.82;;;;;;;3.07;100.00;101474.56;4996677;28;20073;-77
2022/11/29 08:45:36;;;;;;;29.00;16.60;;;;;;;3.03;100.00;101460.56;5006344;28;20042;-77
2022/11/29 08:48:02;;;;;;;40.97;19.98;;;;;;;2.59;100.00;101378.97;5006781;28;20050;-76
2022/11/29 08:50:27;;;;;;;28.25;16.00;;;;;;;3.00;100.00;101433.56;5005301;28;20481;-77
2022/11/29 08:55:41;;;;;;;25.08;13.15;;;;;;;2.66;100.00;101330.94;5006206;28;20061;-80
2022/11/29 08:58:09;;;;;;;18.67;13.02;;;;;;;2.62;100.00;101334.19;5003171;28;20140;-79
2022/11/29 09:00:36;;;;;;;26.60;15.43;;;;;;;3.00;100.00;101384.31;5010761;28;20133;-78
2022/11/29 09:05:48;;;;;;;27.65;15.68;;;;;;;2.89;100.00;101329.41;5006845;28;20566;-78
2022/11/29 09:08:13;;;;;;;20.25;12.40;;;;;;;3.46;100.00;101433.13;5007871;28;20026;-76
2022/11/29 09:10:40;;;;;;;24.75;13.90;;;;;;;3.68;100.00;101430.69;5006681;28;20054;-79
2022/11/29 09:13:08;;;;;;;30.33;15.77;;;;;;;2.99;100.00;101299.59;5003029;28;20042;-80
2022/11/29 09:15:35;;;;;;;24.45;14.25;;;;;;;3.75;100.00;101430.13;5007302;28;20054;-75
2022/11/29 09:18:03;;;;;;;19.45;11.93;;;;;;;3.76;100.00;101425.81;5008025;28;20072;-77
2022/11/29 09:20:28;;;;;;;18.95;11.07;;;;;;;3.92;100.00;101404.00;4999586;28;20405;-78
2022/11/29 09:22:53;;;;;;;21.80;12.25;;;;;;;3.45;100.00;101299.03;5008366;28;20033;-76
2022/11/29 09:25:20;;;;;;;16.60;10.45;;;;;;;4.00;100.00;101411.31;4998045;28;20058;-78
2022/11/29 09:27:46;;;;;;;17.88;11.00;;;;;;;2.97;100.00;101252.88;5003252;28;20042;-81
2022/11/29 09:30:12;;;;;;;22.48;10.10;;;;;;;3.82;100.00;101405.31;5003159;28;20383;-78
2022/11/29 09:32:37;;;;;;;14.60;9.23;;;;;;;3.00;100.00;101262.47;4997920;28;20050;-78
2022/11/29 09:35:03;;;;;;;14.77;9.98;;;;;;;3.93;100.00;101405.78;5008793;28;20071;-78
2022/11/29 09:37:28;;;;;;;12.80;8.15;;;;;;;3.00;100.00;101237.47;5005401;28;20041;-78
2022/11/29 09:39:54;;;;;;;16.73;9.68;;;;;;;3.20;100.00;101292.78;5002721;28;20046;-77
2022/11/29 09:42:35;;;;;;;17.00;8.23;;;;;;;3.86;100.00;101402.00;5007017;28;20038;-76
2022/11/29 09:45:08;;;;;;;20.25;9.75;;;;;;;3.79;100.00;101367.16;4995844;28;20088;-76
2022/11/29 09:47:58;;;;;;;15.07;7.78;;;;;;;4.27;100.00;101408.09;5001704;28;20133;-78
2022/11/29 09:50:57;;;;;;;18.13;9.95;;;;;;;3.39;100.00;101242.56;4998187;28;20084;-77
2022/11/29 09:53:45;;;;;;;11.52;7.90;;;;;;;4.11;100.00;101400.47;4996377;28;20057;-77
2022/11/29 09:56:37;;;;;;;31.25;10.63;;;;;;;4.17;100.00;101390.38;5000817;28;20176;-78
2022/11/29 09:59:27;;;;;;;17.88;8.60;;;;;;;4.05;100.00;101388.13;5005140;28;20053;-77
2022/11/29 10:01:57;;;;;;;23.17;11.52;;;;;;;4.16;100.00;101393.75;5007954;28;20052;-77
2022/11/29 10:04:29;;;;;;;13.80;9.38;;;;;;;3.64;100.00;101332.72;5027939;28;20218;-77
2022/11/29 10:07:14;;;;;;;19.33;10.30;;;;;;;3.40;100.00;101243.50;5006490;28;20075;-77
2022/11/29 10:09:49;;;;;;;19.95;9.25;;;;;;;3.99;100.00;101342.00;4999437;28;20096;-78
2022/11/29 10:12:22;;;;;;;19.80;10.13;;;;;;;3.84;100.00;101293.75;5006434;28;20089;-79
2022/11/29 10:14:53;;;;;;;17.00;12.07;;;;;;;3.53;100.00;101233.66;5000460;28;20093;-80
2022/11/29 10:17:40;;;;;;;19.48;10.48;;;;;;;4.28;100.00;101370.00;4997506;28;20081;-80
2022/11/29 10:20:19;;;;;;;17.40;9.93;;;;;;;4.40;100.00;101375.69;4996312;28;20030;-77
2022/11/29 10:22:52;;;;;;;18.00;10.43;;;;;;;4.02;100.00;101341.25;5006798;28;20110;-77
2022/11/29 10:25:51;;;;;;;20.05;11.85;;;;;;;4.47;100.00;101374.22;5004955;28;20056;-78
2022/11/29 10:28:20;;;;;;;15.15;7.85;;;;;;;3.66;100.00;101231.59;5006243;28;20053;-77
2022/11/29 10:30:47;;;;;;;18.35;9.07;;;;;;;3.81;100.00;101242.59;5005968;28;20046;-82
2022/11/29 10:33:31;;;;;;;13.75;8.00;;;;;;;3.69;100.00;101262.84;5006345;28;20401;-79
2022/11/29 10:36:08;;;;;;;19.05;9.35;;;;;;;3.72;100.00;101258.69;4995591;28;20057;-76
2022/11/29 10:38:34;;;;;;;15.43;8.20;;;;;;;4.25;100.00;101344.78;4998015;28;20053;-77
2022/11/29 10:41:09;;;;;;;12.23;7.30;;;;;;;3.63;100.00;101245.34;5002376;28;20046;-81
2022/11/29 10:43:36;;;;;;;14.27;7.63;;;;;;;4.44;100.00;101401.88;5006528;28;20049;-78
2022/11/29 10:46:02;;;;;;;12.80;7.70;;;;;;;3.72;100.00;101263.88;4993942;28;20402;-74
2022/11/29 10:48:31;;;;;;;12.73;7.90;;;;;;;3.85;100.00;101267.84;4997740;28;20490;-74
2022/11/29 10:50:58;;;;;;;15.38;7.22;;;;;;;4.41;100.00;101383.56;5008845;28;20080;-77
2022/11/29 10:53:34;;;;;;;13.30;7.15;;;;;;;4.53;100.00;101379.69;5014210;28;20135;-76
2022/11/29 10:56:16;;;;;;;16.02;8.60;;;;;;;4.53;100.00;101374.50;5000934;28;20147;-78
2022/11/29 10:59:03;;;;;;;19.67;8.38;;;;;;;3.93;100.00;101273.34;5006732;28;20514;-75
2022/11/29 11:01:32;;;;;;;13.27;8.15;;;;;;;3.76;100.00;101259.69;5001575;28;20030;-77
2022/11/29 11:03:59;;;;;;;12.25;8.20;;;;;;;4.50;100.00;101382.19;5009090;28;20095;-78
2022/11/29 11:06:42;;;;;;;14.10;7.78;;;;;;;4.54;100.00;101390.16;5010374;28;20080;-75
2022/11/29 11:09:21;;;;;;;12.77;7.85;;;;;;;4.53;100.00;101384.88;5005517;28;20413;-76
2022/11/29 11:11:52;;;;;;;18.42;9.75;;;;;;;4.51;100.00;101364.03;5009066;28;20100;-78
2022/11/29 11:14:33;;;;;;;12.18;7.57;;;;;;;3.75;100.00;101250.16;5007610;28;20061;-77
2022/11/29 11:17:30;;;;;;;12.70;7.43;;;;;;;4.56;100.00;101388.47;5003710;28;20056;-77
2022/11/29 11:20:07;;;;;;;10.23;6.95;;;;;;;4.03;100.00;101272.94;5008927;28;20511;-78
2022/11/29 11:22:33;;;;;;;10.57;6.88;;;;;;;3.84;100.00;101252.22;5006999;28;20057;-75
2022/11/29 11:25:28;;;;;;;13.70;7.25;;;;;;;4.62;100.00;101393.94;4990759;28;20047;-77
2022/11/29 11:27:54;;;;;;;14.05;8.45;;;;;;;4.25;100.00;101317.94;4992934;28;20105;-77
2022/11/29 11:30:26;;;;;;;12.38;7.57;;;;;;;4.61;100.00;101393.84;5006920;28;20042;-76
2022/11/29 11:33:19;;;;;;;15.45;9.82;;;;;;;4.53;100.00;101383.16;5010273;28;20038;-78
2022/11/29 11:36:02;;;;;;;12.50;6.85;;;;;;;3.67;100.00;101230.75;5003494;28;20058;-77
2022/11/29 11:38:27;;;;;;;17.67;8.50;;;;;;;4.59;100.00;101375.63;5002296;28;20037;-76
2022/11/29 11:41:20;;;;;;;17.92;10.00;;;;;;;4.36;100.00;101359.09;5002805;28;20997;-78
2022/11/29 11:43:53;;;;;;;12.73;5.38;;;;;;;4.38;100.00;101369.56;5001851;28;20050;-76
2022/11/29 11:46:19;;;;;;;13.27;7.68;;;;;;;4.16;100.00;101353.09;5005637;28;20053;-78
2022/11/29 11:48:45;;;;;;;10.07;5.53;;;;;;;4.34;100.00;101389.34;4992956;28;20392;-76
2022/11/29 11:51:24;;;;;;;9.73;5.68;;;;;;;4.24;100.00;101353.44;4999979;28;20042;-76
2022/11/29 11:53:55;;;;;;;11.30;6.57;;;;;;;4.52;100.00;101384.00;5005913;28;20042;-76
2022/11/29 11:56:24;;;;;;;9.82;6.30;;;;;;;3.74;100.00;101274.31;5007527;28;20037;-76
2022/11/29 11:58:56;;;;;;;15.32;7.20;;;;;;;4.12;100.00;101326.94;4988973;28;20184;-77